sensor_id;sensor_type;location;lat;lon;timestamp;pressure;altitude;pressure_sealevel;temperature;humidity
13011;BME280;6786;57.632;11.962;2023-08-06T00:01:26;100496.75;;;20.62;69.16
13011;BME280;6786;57.632;11.962;2023-08-06T00:03:54;100495.09;;;20.61;69.10
13011;BME280;6786;57.632;11.962;2023-08-06T00:06:22;100501.16;;;20.63;69.40
13011;BME280;6786;57.632;11.962;2023-08-06T00:08:51;100498.47;;;20.63;69.06
13011;BME280;6786;57.632;11.962;2023-08-06T00:11:19;100491.25;;;20.64;69.05
13011;BME280;6786;57.632;11.962;2023-08-06T00:13:47;100492.09;;;20.64;69.17
13011;BME280;6786;57.632;11.962;2023-08-06T00:16:17;100491.25;;;20.64;69.16
13011;BME280;6786;57.632;11.962;2023-08-06T00:18:45;100490.41;;;20.63;69.34
13011;BME280;6786;57.632;11.962;2023-08-06T00:21:13;100469.84;;;20.54;69.27
13011;BME280;6786;57.632;11.962;2023-08-06T00:23:41;100393.78;;;20.09;69.16
13011;BME280;6786;57.632;11.962;2023-08-06T00:26:10;100410.34;;;20.14;69.26
13011;BME280;6786;57.632;11.962;2023-08-06T00:28:38;100483.03;;;20.65;69.05
13011;BME280;6786;57.632;11.962;2023-08-06T00:31:06;100450.34;;;20.52;69.45
13011;BME280;6786;57.632;11.962;2023-08-06T00:33:35;100470.63;;;20.64;68.94
13011;BME280;6786;57.632;11.962;2023-08-06T00:36:04;100477.66;;;20.65;68.91
13011;BME280;6786;57.632;11.962;2023-08-06T00:38:32;100443.91;;;20.45;69.18
13011;BME280;6786;57.632;11.962;2023-08-06T00:41:00;100477.66;;;20.65;69.12
13011;BME280;6786;57.632;11.962;2023-08-06T00:43:28;100472.28;;;20.65;69.13
13011;BME280;6786;57.632;11.962;2023-08-06T00:45:56;100472.28;;;20.65;69.16
13011;BME280;6786;57.632;11.962;2023-08-06T00:48:24;100372.31;;;20.09;68.79
13011;BME280;6786;57.632;11.962;2023-08-06T00:50:54;100459.56;;;20.67;69.00
13011;BME280;6786;57.632;11.962;2023-08-06T00:53:22;100463.25;;;20.66;68.84
13011;BME280;6786;57.632;11.962;2023-08-06T00:55:51;100451.97;;;20.63;68.99
13011;BME280;6786;57.632;11.962;2023-08-06T00:58:19;100459.03;;;20.64;68.97
13011;BME280;6786;57.632;11.962;2023-08-06T01:00:47;100452.81;;;20.63;69.09
13011;BME280;6786;57.632;11.962;2023-08-06T01:03:16;100463.56;;;20.63;69.22
13011;BME280;6786;57.632;11.962;2023-08-06T01:05:44;100456.47;;;20.62;69.29
13011;BME280;6786;57.632;11.962;2023-08-06T01:08:19;100458.19;;;20.63;69.09
13011;BME280;6786;57.632;11.962;2023-08-06T01:10:57;100452.81;;;20.63;68.98
13011;BME280;6786;57.632;11.962;2023-08-06T01:13:33;100449.44;;;20.61;69.25
13011;BME280;6786;57.632;11.962;2023-08-06T01:16:05;100448.59;;;20.61;69.20
13011;BME280;6786;57.632;11.962;2023-08-06T01:18:34;100449.44;;;20.61;69.19
13011;BME280;6786;57.632;11.962;2023-08-06T01:21:05;100446.75;;;20.61;68.98
13011;BME280;6786;57.632;11.962;2023-08-06T01:23:33;100443.22;;;20.61;68.95
13011;BME280;6786;57.632;11.962;2023-08-06T01:26:08;100286.19;;;19.68;68.90
13011;BME280;6786;57.632;11.962;2023-08-06T01:28:44;100435.00;;;20.62;69.00
13011;BME280;6786;57.632;11.962;2023-08-06T01:31:21;100363.56;;;20.07;68.98
13011;BME280;6786;57.632;11.962;2023-08-06T01:33:50;100440.38;;;20.62;69.06
13011;BME280;6786;57.632;11.962;2023-08-06T01:36:22;100435.00;;;20.62;68.65
13011;BME280;6786;57.632;11.962;2023-08-06T01:38:51;100434.19;;;20.62;68.74
13011;BME280;6786;57.632;11.962;2023-08-06T01:41:19;100359.63;;;20.11;68.79
13011;BME280;6786;57.632;11.962;2023-08-06T01:43:48;100440.38;;;20.62;68.69
13011;BME280;6786;57.632;11.962;2023-08-06T01:46:16;100426.72;;;20.56;69.09
13011;BME280;6786;57.632;11.962;2023-08-06T01:48:44;100435.84;;;20.63;69.03
13011;BME280;6786;57.632;11.962;2023-08-06T01:51:12;100436.00;;;20.61;68.90
13011;BME280;6786;57.632;11.962;2023-08-06T01:53:41;100444.06;;;20.61;68.99
13011;BME280;6786;57.632;11.962;2023-08-06T01:56:10;100441.38;;;20.61;68.70
13011;BME280;6786;57.632;11.962;2023-08-06T01:58:38;100437.84;;;20.61;68.77
13011;BME280;6786;57.632;11.962;2023-08-06T02:01:06;100439.84;;;20.59;68.87
13011;BME280;6786;57.632;11.962;2023-08-06T02:03:34;100443.06;;;20.62;68.90
13011;BME280;6786;57.632;11.962;2023-08-06T02:06:02;100440.38;;;20.62;68.92
13011;BME280;6786;57.632;11.962;2023-08-06T02:08:30;100444.94;;;20.62;68.81
13011;BME280;6786;57.632;11.962;2023-08-06T02:11:00;100453.81;;;20.62;68.64
13011;BME280;6786;57.632;11.962;2023-08-06T02:13:29;100450.44;;;20.60;68.60
13011;BME280;6786;57.632;11.962;2023-08-06T02:15:57;100358.84;;;20.01;68.63
13011;BME280;6786;57.632;11.962;2023-08-06T02:18:25;100463.00;;;20.60;68.71
13011;BME280;6786;57.632;11.962;2023-08-06T02:20:57;100466.72;;;20.59;68.67
13011;BME280;6786;57.632;11.962;2023-08-06T02:23:26;100471.94;;;20.60;68.75
13011;BME280;6786;57.632;11.962;2023-08-06T02:26:00;100478.28;;;20.59;68.68
13011;BME280;6786;57.632;11.962;2023-08-06T02:28:28;100479.97;;;20.60;68.61
13011;BME280;6786;57.632;11.962;2023-08-06T02:30:57;100386.03;;;20.06;68.53
13011;BME280;6786;57.632;11.962;2023-08-06T02:33:25;100479.97;;;20.60;68.66
13011;BME280;6786;57.632;11.962;2023-08-06T02:35:59;100485.34;;;20.60;68.69
13011;BME280;6786;57.632;11.962;2023-08-06T02:38:27;100492.41;;;20.61;68.65
13011;BME280;6786;57.632;11.962;2023-08-06T02:40:55;100393.09;;;20.07;68.45
13011;BME280;6786;57.632;11.962;2023-08-06T02:43:25;100487.03;;;20.61;68.46
13011;BME280;6786;57.632;11.962;2023-08-06T02:45:57;100488.72;;;20.62;68.68
13011;BME280;6786;57.632;11.962;2023-08-06T02:48:25;100482.66;;;20.60;68.77
13011;BME280;6786;57.632;11.962;2023-08-06T02:50:57;100478.81;;;20.63;68.32
13011;BME280;6786;57.632;11.962;2023-08-06T02:53:26;100395.19;;;20.13;68.59
13011;BME280;6786;57.632;11.962;2023-08-06T02:55:54;100477.97;;;20.62;68.45
13011;BME280;6786;57.632;11.962;2023-08-06T02:58:22;100489.72;;;20.61;68.28
13011;BME280;6786;57.632;11.962;2023-08-06T03:01:01;100478.81;;;20.63;68.41
13011;BME280;6786;57.632;11.962;2023-08-06T03:03:30;100479.84;;;20.62;68.57
13011;BME280;6786;57.632;11.962;2023-08-06T03:05:58;100402.28;;;20.14;68.48
13011;BME280;6786;57.632;11.962;2023-08-06T03:08:26;100477.16;;;20.62;68.40
13011;BME280;6786;57.632;11.962;2023-08-06T03:10:55;100487.03;;;20.61;68.59
13011;BME280;6786;57.632;11.962;2023-08-06T03:13:23;100473.75;;;20.60;68.39
13011;BME280;6786;57.632;11.962;2023-08-06T03:15:52;100466.44;;;20.52;68.42
13011;BME280;6786;57.632;11.962;2023-08-06T03:18:23;100474.63;;;20.60;68.38
13011;BME280;6786;57.632;11.962;2023-08-06T03:20:52;100473.06;;;20.58;68.34
13011;BME280;6786;57.632;11.962;2023-08-06T03:23:20;100401.13;;;20.07;68.29
13011;BME280;6786;57.632;11.962;2023-08-06T03:25:49;100474.91;;;20.57;68.22
13011;BME280;6786;57.632;11.962;2023-08-06T03:28:17;100484.34;;;20.61;68.34
13011;BME280;6786;57.632;11.962;2023-08-06T03:30:45;100409.03;;;20.18;68.26
13011;BME280;6786;57.632;11.962;2023-08-06T03:33:13;100487.88;;;20.62;68.40
13011;BME280;6786;57.632;11.962;2023-08-06T03:35:43;100487.88;;;20.62;68.38
13011;BME280;6786;57.632;11.962;2023-08-06T03:38:11;100477.97;;;20.62;68.40
13011;BME280;6786;57.632;11.962;2023-08-06T03:40:39;100347.41;;;19.72;68.37
13011;BME280;6786;57.632;11.962;2023-08-06T03:43:07;100480.66;;;20.62;68.32
13011;BME280;6786;57.632;11.962;2023-08-06T03:45:35;100414.09;;;20.21;67.94
13011;BME280;6786;57.632;11.962;2023-08-06T03:48:04;100483.34;;;20.62;68.01
13011;BME280;6786;57.632;11.962;2023-08-06T03:50:32;100471.22;;;20.58;68.03
13011;BME280;6786;57.632;11.962;2023-08-06T03:53:01;100478.97;;;20.61;68.13
13011;BME280;6786;57.632;11.962;2023-08-06T03:55:29;100481.66;;;20.61;68.00
13011;BME280;6786;57.632;11.962;2023-08-06T03:57:57;100479.97;;;20.60;68.04
13011;BME280;6786;57.632;11.962;2023-08-06T04:00:26;100471.06;;;20.60;68.33
13011;BME280;6786;57.632;11.962;2023-08-06T04:02:54;100478.13;;;20.61;68.01
13011;BME280;6786;57.632;11.962;2023-08-06T04:05:22;100470.91;;;20.61;68.28
13011;BME280;6786;57.632;11.962;2023-08-06T04:07:50;100467.53;;;20.59;68.14
13011;BME280;6786;57.632;11.962;2023-08-06T04:10:19;100466.41;;;20.62;68.19
13011;BME280;6786;57.632;11.962;2023-08-06T04:12:47;100470.91;;;20.61;68.35
13011;BME280;6786;57.632;11.962;2023-08-06T04:15:16;100473.44;;;20.63;68.00
13011;BME280;6786;57.632;11.962;2023-08-06T04:17:44;100460.19;;;20.61;68.05
13011;BME280;6786;57.632;11.962;2023-08-06T04:20:12;100456.47;;;20.62;68.05
13011;BME280;6786;57.632;11.962;2023-08-06T04:22:40;100453.94;;;20.61;68.06
13011;BME280;6786;57.632;11.962;2023-08-06T04:25:09;100454.81;;;20.61;67.96
13011;BME280;6786;57.632;11.962;2023-08-06T04:27:38;100467.22;;;20.62;67.93
13011;BME280;6786;57.632;11.962;2023-08-06T04:30:08;100460.19;;;20.61;68.05
13011;BME280;6786;57.632;11.962;2023-08-06T04:32:39;100460.19;;;20.61;68.17
13011;BME280;6786;57.632;11.962;2023-08-06T04:35:07;100458.50;;;20.60;68.20
13011;BME280;6786;57.632;11.962;2023-08-06T04:37:35;100448.06;;;20.57;67.94
13011;BME280;6786;57.632;11.962;2023-08-06T04:40:04;100454.81;;;20.61;68.06
13011;BME280;6786;57.632;11.962;2023-08-06T04:42:33;100462.88;;;20.61;67.86
13011;BME280;6786;57.632;11.962;2023-08-06T04:45:03;100434.53;;;20.49;67.92
13011;BME280;6786;57.632;11.962;2023-08-06T04:47:31;100452.28;;;20.60;67.95
13011;BME280;6786;57.632;11.962;2023-08-06T04:49:59;100449.75;;;20.58;67.85
13011;BME280;6786;57.632;11.962;2023-08-06T04:52:27;100446.19;;;20.58;67.99
13011;BME280;6786;57.632;11.962;2023-08-06T04:54:56;100446.03;;;20.59;67.94
13011;BME280;6786;57.632;11.962;2023-08-06T04:57:24;100445.22;;;20.59;67.91
13011;BME280;6786;57.632;11.962;2023-08-06T04:59:52;100379.09;;;20.13;68.12
13011;BME280;6786;57.632;11.962;2023-08-06T05:02:22;100448.72;;;20.59;67.86
13011;BME280;6786;57.632;11.962;2023-08-06T05:04:50;100452.44;;;20.58;67.95
13011;BME280;6786;57.632;11.962;2023-08-06T05:07:18;100440.69;;;20.59;67.93
13011;BME280;6786;57.632;11.962;2023-08-06T05:09:46;100289.72;;;19.68;67.84
13011;BME280;6786;57.632;11.962;2023-08-06T05:12:14;100444.38;;;20.58;67.89
13011;BME280;6786;57.632;11.962;2023-08-06T05:14:42;100435.31;;;20.59;67.93
13011;BME280;6786;57.632;11.962;2023-08-06T05:17:11;100349.19;;;20.08;67.78
13011;BME280;6786;57.632;11.962;2023-08-06T05:19:40;100438.69;;;20.61;68.08
13011;BME280;6786;57.632;11.962;2023-08-06T05:22:08;100422.88;;;20.58;67.82
13011;BME280;6786;57.632;11.962;2023-08-06T05:24:36;100421.50;;;20.54;68.01
13011;BME280;6786;57.632;11.962;2023-08-06T05:27:05;100422.59;;;20.61;67.80
13011;BME280;6786;57.632;11.962;2023-08-06T05:29:33;100427.09;;;20.61;67.83
13011;BME280;6786;57.632;11.962;2023-08-06T05:32:01;100434.19;;;20.62;67.92
13011;BME280;6786;57.632;11.962;2023-08-06T05:34:30;100431.66;;;20.60;67.70
13011;BME280;6786;57.632;11.962;2023-08-06T05:37:00;100424.56;;;20.59;67.93
13011;BME280;6786;57.632;11.962;2023-08-06T05:39:28;100432.47;;;20.61;67.98
13011;BME280;6786;57.632;11.962;2023-08-06T05:41:56;100420.91;;;20.60;67.96
13011;BME280;6786;57.632;11.962;2023-08-06T05:44:24;100430.78;;;20.60;67.83
13011;BME280;6786;57.632;11.962;2023-08-06T05:46:52;100421.22;;;20.57;68.01
13011;BME280;6786;57.632;11.962;2023-08-06T05:49:20;100413.81;;;20.59;67.99
13011;BME280;6786;57.632;11.962;2023-08-06T05:51:48;100407.94;;;20.56;67.86
13011;BME280;6786;57.632;11.962;2023-08-06T05:54:19;100413.81;;;20.59;67.94
13011;BME280;6786;57.632;11.962;2023-08-06T05:56:47;100413.00;;;20.59;67.92
13011;BME280;6786;57.632;11.962;2023-08-06T05:59:15;100417.53;;;20.58;67.86
13011;BME280;6786;57.632;11.962;2023-08-06T06:01:44;100411.44;;;20.56;67.84
13011;BME280;6786;57.632;11.962;2023-08-06T06:04:12;100413.47;;;20.54;67.92
13011;BME280;6786;57.632;11.962;2023-08-06T06:06:40;100416.97;;;20.55;68.30
13011;BME280;6786;57.632;11.962;2023-08-06T06:09:08;100422.34;;;20.55;68.12
13011;BME280;6786;57.632;11.962;2023-08-06T06:11:38;100405.25;;;20.56;68.09
13011;BME280;6786;57.632;11.962;2023-08-06T06:14:06;100402.56;;;20.56;67.92
13011;BME280;6786;57.632;11.962;2023-08-06T06:16:34;100324.34;;;20.06;67.95
13011;BME280;6786;57.632;11.962;2023-08-06T06:19:03;100316.44;;;20.05;67.78
13011;BME280;6786;57.632;11.962;2023-08-06T06:21:31;100396.34;;;20.55;67.85
13011;BME280;6786;57.632;11.962;2023-08-06T06:23:59;100395.34;;;20.56;68.09
13011;BME280;6786;57.632;11.962;2023-08-06T06:26:27;100395.34;;;20.56;68.00
13011;BME280;6786;57.632;11.962;2023-08-06T06:28:57;100405.94;;;20.58;68.14
13011;BME280;6786;57.632;11.962;2023-08-06T06:31:26;100407.09;;;20.55;67.96
13011;BME280;6786;57.632;11.962;2023-08-06T06:33:54;100395.34;;;20.56;68.03
13011;BME280;6786;57.632;11.962;2023-08-06T06:36:22;100390.13;;;20.55;67.81
13011;BME280;6786;57.632;11.962;2023-08-06T06:38:51;100387.28;;;20.56;67.83
13011;BME280;6786;57.632;11.962;2023-08-06T06:41:19;100392.66;;;20.56;68.01
13011;BME280;6786;57.632;11.962;2023-08-06T06:43:47;100385.91;;;20.52;67.87
13011;BME280;6786;57.632;11.962;2023-08-06T06:46:16;100390.97;;;20.55;67.95
13011;BME280;6786;57.632;11.962;2023-08-06T06:48:44;100398.03;;;20.56;68.02
13011;BME280;6786;57.632;11.962;2023-08-06T06:51:12;100386.50;;;20.46;67.83
13011;BME280;6786;57.632;11.962;2023-08-06T06:53:41;100399.88;;;20.56;68.13
13011;BME280;6786;57.632;11.962;2023-08-06T06:56:09;100393.00;;;20.53;67.82
13011;BME280;6786;57.632;11.962;2023-08-06T06:58:37;100403.38;;;20.56;68.07
13011;BME280;6786;57.632;11.962;2023-08-06T07:01:06;100382.84;;;20.47;67.84
13011;BME280;6786;57.632;11.962;2023-08-06T07:03:35;100392.66;;;20.56;68.04
13011;BME280;6786;57.632;11.962;2023-08-06T07:06:03;100391.28;;;20.52;67.97
13011;BME280;6786;57.632;11.962;2023-08-06T07:08:32;100386.63;;;20.54;68.12
13011;BME280;6786;57.632;11.962;2023-08-06T07:11:01;100383.94;;;20.54;68.13
13011;BME280;6786;57.632;11.962;2023-08-06T07:13:30;100385.59;;;20.55;67.91
13011;BME280;6786;57.632;11.962;2023-08-06T07:15:58;100303.69;;;20.16;67.91
13011;BME280;6786;57.632;11.962;2023-08-06T07:18:26;100364.72;;;20.49;67.76
13011;BME280;6786;57.632;11.962;2023-08-06T07:20:56;100297.50;;;20.06;67.97
13011;BME280;6786;57.632;11.962;2023-08-06T07:23:25;100326.00;;;20.34;67.91
13011;BME280;6786;57.632;11.962;2023-08-06T07:25:53;100362.44;;;20.54;67.77
13011;BME280;6786;57.632;11.962;2023-08-06T07:28:21;100319.97;;;20.32;68.13
13011;BME280;6786;57.632;11.962;2023-08-06T07:30:50;100358.25;;;20.52;67.90
13011;BME280;6786;57.632;11.962;2023-08-06T07:33:18;100353.38;;;20.55;67.98
13011;BME280;6786;57.632;11.962;2023-08-06T07:35:46;100357.91;;;20.55;67.94
13011;BME280;6786;57.632;11.962;2023-08-06T07:38:16;100359.75;;;20.54;67.86
13011;BME280;6786;57.632;11.962;2023-08-06T07:40:44;100364.97;;;20.56;68.11
13011;BME280;6786;57.632;11.962;2023-08-06T07:43:13;100361.44;;;20.55;68.08
13011;BME280;6786;57.632;11.962;2023-08-06T07:45:41;100279.44;;;20.08;67.87
13011;BME280;6786;57.632;11.962;2023-08-06T07:48:09;100355.41;;;20.53;67.77
13011;BME280;6786;57.632;11.962;2023-08-06T07:50:37;100350.69;;;20.55;67.68
13011;BME280;6786;57.632;11.962;2023-08-06T07:53:05;100340.97;;;20.54;68.17
13011;BME280;6786;57.632;11.962;2023-08-06T07:55:35;100345.34;;;20.55;67.82
13011;BME280;6786;57.632;11.962;2023-08-06T07:58:03;100341.63;;;20.56;67.88
13011;BME280;6786;57.632;11.962;2023-08-06T08:00:31;100324.94;;;20.45;67.97
13011;BME280;6786;57.632;11.962;2023-08-06T08:03:00;100352.22;;;20.58;68.01
13011;BME280;6786;57.632;11.962;2023-08-06T08:05:28;100353.38;;;20.55;67.96
13011;BME280;6786;57.632;11.962;2023-08-06T08:07:56;100356.78;;;20.57;67.83
13011;BME280;6786;57.632;11.962;2023-08-06T08:10:24;100362.28;;;20.56;68.13
13011;BME280;6786;57.632;11.962;2023-08-06T08:12:53;100350.94;;;20.44;67.88
13011;BME280;6786;57.632;11.962;2023-08-06T08:15:22;100361.44;;;20.55;68.06
13011;BME280;6786;57.632;11.962;2023-08-06T08:17:50;100336.53;;;20.45;68.12
13011;BME280;6786;57.632;11.962;2023-08-06T08:20:18;100355.41;;;20.53;67.80
13011;BME280;6786;57.632;11.962;2023-08-06T08:22:46;100347.34;;;20.53;67.96
13011;BME280;6786;57.632;11.962;2023-08-06T08:25:15;100362.44;;;20.54;67.98
13011;BME280;6786;57.632;11.962;2023-08-06T08:27:43;100356.22;;;20.54;68.08
13011;BME280;6786;57.632;11.962;2023-08-06T08:30:13;100357.91;;;20.55;67.79
13011;BME280;6786;57.632;11.962;2023-08-06T08:32:41;100357.06;;;20.54;68.07
13011;BME280;6786;57.632;11.962;2023-08-06T08:35:09;100348.63;;;20.49;68.10
13011;BME280;6786;57.632;11.962;2023-08-06T08:37:39;100279.75;;;20.05;68.04
13011;BME280;6786;57.632;11.962;2023-08-06T08:40:08;100359.06;;;20.52;68.07
13011;BME280;6786;57.632;11.962;2023-08-06T08:42:37;100351.88;;;20.53;68.12
13011;BME280;6786;57.632;11.962;2023-08-06T08:45:10;100353.06;;;20.58;67.82
13011;BME280;6786;57.632;11.962;2023-08-06T08:47:42;100280.84;;;20.12;67.94
13011;BME280;6786;57.632;11.962;2023-08-06T08:50:11;100338.94;;;20.56;68.00
13011;BME280;6786;57.632;11.962;2023-08-06T08:52:41;100332.22;;;20.52;67.92
13011;BME280;6786;57.632;11.962;2023-08-06T08:55:14;100234.91;;;19.98;67.70
13011;BME280;6786;57.632;11.962;2023-08-06T08:57:43;100320.50;;;20.53;67.81
13011;BME280;6786;57.632;11.962;2023-08-06T09:00:11;100332.75;;;20.56;67.79
13011;BME280;6786;57.632;11.962;2023-08-06T09:02:42;100318.63;;;20.54;67.84
13011;BME280;6786;57.632;11.962;2023-08-06T09:05:12;100326.53;;;20.55;67.92
13011;BME280;6786;57.632;11.962;2023-08-06T09:07:42;100329.22;;;20.55;67.71
13011;BME280;6786;57.632;11.962;2023-08-06T09:10:11;100324.72;;;20.56;67.90
13011;BME280;6786;57.632;11.962;2023-08-06T09:12:43;100324.84;;;20.54;68.00
13011;BME280;6786;57.632;11.962;2023-08-06T09:15:11;100309.06;;;20.51;67.93
13011;BME280;6786;57.632;11.962;2023-08-06T09:17:41;100314.13;;;20.54;67.92
13011;BME280;6786;57.632;11.962;2023-08-06T09:20:11;100297.16;;;20.54;68.00
13011;BME280;6786;57.632;11.962;2023-08-06T09:22:40;100219.03;;;20.04;67.91
13011;BME280;6786;57.632;11.962;2023-08-06T09:25:09;100299.03;;;20.53;67.71
13011;BME280;6786;57.632;11.962;2023-08-06T09:27:37;100290.97;;;20.53;68.09
13011;BME280;6786;57.632;11.962;2023-08-06T09:30:07;100296.34;;;20.53;67.98
13011;BME280;6786;57.632;11.962;2023-08-06T09:32:47;100303.38;;;20.54;67.50
13011;BME280;6786;57.632;11.962;2023-08-06T09:35:18;100302.38;;;20.55;67.68
13011;BME280;6786;57.632;11.962;2023-08-06T09:37:47;100302.22;;;20.57;67.81
13011;BME280;6786;57.632;11.962;2023-08-06T09:40:24;100299.69;;;20.55;67.75
13011;BME280;6786;57.632;11.962;2023-08-06T09:42:53;100310.28;;;20.57;67.95
13011;BME280;6786;57.632;11.962;2023-08-06T09:45:21;100303.38;;;20.54;67.86
13011;BME280;6786;57.632;11.962;2023-08-06T09:47:55;100304.69;;;20.50;67.49
13011;BME280;6786;57.632;11.962;2023-08-06T09:50:29;100300.00;;;20.52;67.86
13011;BME280;6786;57.632;11.962;2023-08-06T09:52:58;100296.34;;;20.53;67.66
13011;BME280;6786;57.632;11.962;2023-08-06T09:55:27;100302.84;;;20.51;67.96
13011;BME280;6786;57.632;11.962;2023-08-06T09:57:55;100296.34;;;20.53;67.77
13011;BME280;6786;57.632;11.962;2023-08-06T10:00:24;100294.31;;;20.55;67.58
13011;BME280;6786;57.632;11.962;2023-08-06T10:02:54;100294.31;;;20.55;67.75
13011;BME280;6786;57.632;11.962;2023-08-06T10:05:23;100286.25;;;20.55;67.80
13011;BME280;6786;57.632;11.962;2023-08-06T10:07:52;100288.94;;;20.55;67.59
13011;BME280;6786;57.632;11.962;2023-08-06T10:10:23;100283.59;;;20.55;67.64
13011;BME280;6786;57.632;11.962;2023-08-06T10:12:52;100206.00;;;20.09;67.93
13011;BME280;6786;57.632;11.962;2023-08-06T10:15:25;100270.47;;;20.52;67.83
13011;BME280;6786;57.632;11.962;2023-08-06T10:17:56;100257.97;;;20.43;67.76
13011;BME280;6786;57.632;11.962;2023-08-06T10:20:26;100262.72;;;20.49;67.87
13011;BME280;6786;57.632;11.962;2023-08-06T10:23:05;100284.44;;;20.56;67.65
13011;BME280;6786;57.632;11.962;2023-08-06T10:25:35;100265.78;;;20.54;67.55
13011;BME280;6786;57.632;11.962;2023-08-06T10:28:07;100264.28;;;20.52;67.55
13011;BME280;6786;57.632;11.962;2023-08-06T10:30:44;100235.13;;;20.39;67.44
13011;BME280;6786;57.632;11.962;2023-08-06T10:33:14;100256.72;;;20.55;67.75
13011;BME280;6786;57.632;11.962;2023-08-06T10:35:44;100179.78;;;20.03;67.61
13011;BME280;6786;57.632;11.962;2023-08-06T10:38:17;100253.88;;;20.57;67.77
13011;BME280;6786;57.632;11.962;2023-08-06T10:40:49;100259.25;;;20.57;67.76
13011;BME280;6786;57.632;11.962;2023-08-06T10:43:27;100260.94;;;20.58;67.67
13011;BME280;6786;57.632;11.962;2023-08-06T10:45:57;100269.16;;;20.56;67.49
13011;BME280;6786;57.632;11.962;2023-08-06T10:48:34;100249.38;;;20.57;67.71
13011;BME280;6786;57.632;11.962;2023-08-06T10:51:07;100262.81;;;20.57;67.59
13011;BME280;6786;57.632;11.962;2023-08-06T10:53:35;100260.13;;;20.57;67.55
13011;BME280;6786;57.632;11.962;2023-08-06T10:56:12;100254.75;;;20.57;67.71
13011;BME280;6786;57.632;11.962;2023-08-06T10:58:40;100255.72;;;20.56;67.64
13011;BME280;6786;57.632;11.962;2023-08-06T11:01:08;100253.53;;;20.52;67.73
13011;BME280;6786;57.632;11.962;2023-08-06T11:03:39;100265.47;;;20.57;67.65
13011;BME280;6786;57.632;11.962;2023-08-06T11:06:08;100257.59;;;20.56;67.80
13011;BME280;6786;57.632;11.962;2023-08-06T11:08:38;100251.31;;;20.47;67.69
13011;BME280;6786;57.632;11.962;2023-08-06T11:11:10;100253.03;;;20.56;67.74
13011;BME280;6786;57.632;11.962;2023-08-06T11:13:40;100256.72;;;20.55;67.81
13011;BME280;6786;57.632;11.962;2023-08-06T11:16:08;100250.84;;;20.52;67.63
13011;BME280;6786;57.632;11.962;2023-08-06T11:18:39;100253.03;;;20.56;67.50
13011;BME280;6786;57.632;11.962;2023-08-06T11:21:07;100255.72;;;20.56;67.75
13011;BME280;6786;57.632;11.962;2023-08-06T11:23:35;100258.41;;;20.56;67.62
13011;BME280;6786;57.632;11.962;2023-08-06T11:26:04;100251.38;;;20.55;67.51
13011;BME280;6786;57.632;11.962;2023-08-06T11:28:32;100256.72;;;20.55;67.69
13011;BME280;6786;57.632;11.962;2023-08-06T11:31:00;100254.91;;;20.56;67.49
13011;BME280;6786;57.632;11.962;2023-08-06T11:33:30;100181.84;;;20.09;67.70
13011;BME280;6786;57.632;11.962;2023-08-06T11:36:01;100263.25;;;20.53;67.44
13011;BME280;6786;57.632;11.962;2023-08-06T11:38:29;100243.09;;;20.49;67.37
13011;BME280;6786;57.632;11.962;2023-08-06T11:40:58;100247.66;;;20.56;67.44
13011;BME280;6786;57.632;11.962;2023-08-06T11:43:26;100250.34;;;20.56;67.68
13011;BME280;6786;57.632;11.962;2023-08-06T11:45:55;100249.38;;;20.57;67.33
13011;BME280;6786;57.632;11.962;2023-08-06T11:48:24;100243.16;;;20.57;67.32
13011;BME280;6786;57.632;11.962;2023-08-06T11:50:54;100238.94;;;20.54;67.56
13011;BME280;6786;57.632;11.962;2023-08-06T11:53:27;100136.75;;;19.87;67.19
13011;BME280;6786;57.632;11.962;2023-08-06T11:55:56;100233.56;;;20.54;67.77
13011;BME280;6786;57.632;11.962;2023-08-06T11:58:24;100229.88;;;20.55;67.30
13011;BME280;6786;57.632;11.962;2023-08-06T12:00:53;100215.78;;;20.53;67.51
13011;BME280;6786;57.632;11.962;2023-08-06T12:03:22;100212.91;;;20.55;67.32
13011;BME280;6786;57.632;11.962;2023-08-06T12:05:54;100193.88;;;20.40;67.69
13011;BME280;6786;57.632;11.962;2023-08-06T12:08:27;100214.63;;;20.56;67.39
13011;BME280;6786;57.632;11.962;2023-08-06T12:10:55;100203.34;;;20.52;67.62
13011;BME280;6786;57.632;11.962;2023-08-06T12:13:24;100197.66;;;20.55;67.45
13011;BME280;6786;57.632;11.962;2023-08-06T12:15:53;100194.31;;;20.53;67.35
13011;BME280;6786;57.632;11.962;2023-08-06T12:18:24;100190.63;;;20.54;67.41
13011;BME280;6786;57.632;11.962;2023-08-06T12:20:52;100188.94;;;20.53;67.76
13011;BME280;6786;57.632;11.962;2023-08-06T12:23:20;100178.22;;;20.53;67.69
13011;BME280;6786;57.632;11.962;2023-08-06T12:25:49;100175.34;;;20.55;67.57
13011;BME280;6786;57.632;11.962;2023-08-06T12:28:17;100170.81;;;20.55;67.64
13011;BME280;6786;57.632;11.962;2023-08-06T12:30:49;100156.38;;;20.56;67.45
13011;BME280;6786;57.632;11.962;2023-08-06T12:33:18;100156.38;;;20.56;67.36
13011;BME280;6786;57.632;11.962;2023-08-06T12:35:46;100152.72;;;20.57;67.26
13011;BME280;6786;57.632;11.962;2023-08-06T12:38:14;100143.97;;;20.55;67.41
13011;BME280;6786;57.632;11.962;2023-08-06T12:40:42;100132.38;;;20.55;67.45
13011;BME280;6786;57.632;11.962;2023-08-06T12:43:12;100130.72;;;20.54;67.04
13011;BME280;6786;57.632;11.962;2023-08-06T12:45:41;100139.28;;;20.57;67.50
13011;BME280;6786;57.632;11.962;2023-08-06T12:48:09;100141.97;;;20.57;67.29
13011;BME280;6786;57.632;11.962;2023-08-06T12:50:37;100134.91;;;20.56;67.42
13011;BME280;6786;57.632;11.962;2023-08-06T12:53:05;100121.47;;;20.56;67.11
13011;BME280;6786;57.632;11.962;2023-08-06T12:55:33;100126.19;;;20.54;67.42
13011;BME280;6786;57.632;11.962;2023-08-06T12:58:02;100121.47;;;20.56;67.22
13011;BME280;6786;57.632;11.962;2023-08-06T13:00:31;100110.72;;;20.48;67.40